createdAt,value
2019-01-31T00:03:40.863Z,19.23
2019-01-31T00:08:49.820Z,17.90
2019-01-31T00:13:42.520Z,17.17
2019-01-31T00:18:30.793Z,16.70
2019-01-31T00:23:37.296Z,14.40
2019-01-31T00:28:07.024Z,14.70
2019-01-31T00:33:16.133Z,15.10
2019-01-31T00:37:48.043Z,13.50
2019-01-31T00:42:45.124Z,14.37
2019-01-31T00:47:15.442Z,13.03
2019-01-31T00:51:59.223Z,14.17
2019-01-31T00:56:46.770Z,14.50
2019-01-31T01:01:36.549Z,13.80
2019-01-31T01:06:36.557Z,13.40
2019-01-31T01:11:59.920Z,13.20
2019-01-31T01:16:55.391Z,12.07
2019-01-31T01:21:31.036Z,12.13
2019-01-31T01:26:39.366Z,11.03
2019-01-31T01:31:51.877Z,10.67
2019-01-31T01:36:49.285Z,9.63
2019-01-31T01:41:42.343Z,9.97
2019-01-31T01:47:05.428Z,9.07
2019-01-31T01:52:01.850Z,9.10
2019-01-31T01:56:45.448Z,9.40
2019-01-31T02:01:34.767Z,9.20
2019-01-31T02:06:42.467Z,8.90
2019-01-31T02:11:21.360Z,8.80
2019-01-31T02:16:38.102Z,8.93
2019-01-31T02:21:29.597Z,9.27
2019-01-31T02:25:55.130Z,9.67
2019-01-31T02:30:43.910Z,8.83
2019-01-31T02:35:24.859Z,9.97
2019-01-31T02:40:07.315Z,8.50
2019-01-31T02:45:27.888Z,8.80
2019-01-31T02:50:11.413Z,8.93
2019-01-31T02:54:47.842Z,9.00
2019-01-31T02:59:54.634Z,8.27
2019-01-31T03:04:39.119Z,8.13
2019-01-31T03:09:54.625Z,8.43
2019-01-31T03:14:22.117Z,8.03
2019-01-31T03:18:52.257Z,7.67
2019-01-31T03:23:54.909Z,7.67
2019-01-31T03:28:40.724Z,8.03
2019-01-31T03:33:48.795Z,8.37
2019-01-31T03:38:37.136Z,8.30
2019-01-31T03:43:23.501Z,8.10
2019-01-31T03:48:18.754Z,7.67
2019-01-31T03:53:06.079Z,8.03
2019-01-31T03:57:57.665Z,8.57
2019-01-31T04:02:36.208Z,7.77
2019-01-31T04:06:41.175Z,7.97
2019-01-31T04:10:46.047Z,9.10
2019-01-31T04:14:50.939Z,8.63
2019-01-31T04:18:56.249Z,8.83
2019-01-31T04:23:01.164Z,7.73
2019-01-31T04:27:06.073Z,8.63
2019-01-31T04:31:10.979Z,7.93
2019-01-31T04:35:15.945Z,7.93
2019-01-31T04:39:21.169Z,8.50
2019-01-31T04:43:26.136Z,8.37
2019-01-31T04:47:31.031Z,8.80
2019-01-31T04:51:36.289Z,8.57
2019-01-31T04:55:41.287Z,9.50
2019-01-31T04:59:46.502Z,10.43
2019-01-31T05:03:51.405Z,8.60
2019-01-31T05:07:56.320Z,8.60
2019-01-31T05:12:01.210Z,9.47
2019-01-31T05:16:06.146Z,8.90
2019-01-31T05:20:15.239Z,9.10
2019-01-31T05:24:20.205Z,9.50
2019-01-31T05:28:25.481Z,8.83
2019-01-31T05:32:30.423Z,9.10
2019-01-31T05:36:35.504Z,10.37
2019-01-31T05:40:40.473Z,10.47
2019-01-31T05:44:46.375Z,9.23
2019-01-31T05:48:51.864Z,10.03
2019-01-31T05:52:56.842Z,10.47
2019-01-31T05:57:02.131Z,9.90
2019-01-31T06:01:07.114Z,9.70
2019-01-31T06:05:12.459Z,9.93
2019-01-31T06:09:17.471Z,9.50
2019-01-31T06:13:22.705Z,9.77
2019-01-31T06:17:28.072Z,9.73
2019-01-31T06:21:33.044Z,9.50
2019-01-31T06:25:38.376Z,9.80
2019-01-31T06:29:43.343Z,9.47
2019-01-31T06:33:48.329Z,9.60
2019-01-31T06:37:53.356Z,10.07
2019-01-31T06:41:58.275Z,10.70
2019-01-31T06:46:03.163Z,9.80
2019-01-31T06:50:08.971Z,9.63
2019-01-31T06:54:13.876Z,11.00
2019-01-31T06:58:18.877Z,10.47
2019-01-31T07:02:23.768Z,15.60
2019-01-31T07:06:28.686Z,13.70
2019-01-31T07:10:33.626Z,13.43
2019-01-31T07:14:38.511Z,11.90
2019-01-31T07:18:43.410Z,10.67
2019-01-31T07:22:48.303Z,11.27
2019-01-31T07:26:53.203Z,12.27
2019-01-31T07:30:58.114Z,11.67
2019-01-31T07:35:03.053Z,12.63
2019-01-31T07:39:09.624Z,13.87
2019-01-31T07:43:14.534Z,13.50
2019-01-31T07:47:19.427Z,14.33
2019-01-31T07:51:24.352Z,15.40
2019-01-31T07:55:29.250Z,16.20
2019-01-31T07:59:34.161Z,15.80
2019-01-31T08:03:40.742Z,14.70
2019-01-31T08:07:45.965Z,16.60
2019-01-31T08:11:52.641Z,20.53
2019-01-31T08:15:57.481Z,19.77
2019-01-31T08:20:02.384Z,20.70
2019-01-31T08:24:09.539Z,20.87
2019-01-31T08:28:13.960Z,21.00
2019-01-31T08:32:18.857Z,21.90
2019-01-31T08:36:23.772Z,23.70
2019-01-31T08:40:28.640Z,24.03
2019-01-31T08:44:33.559Z,25.37
2019-01-31T08:48:38.546Z,25.23
2019-01-31T08:52:43.451Z,26.70
2019-01-31T08:56:48.324Z,26.67
2019-01-31T09:00:53.252Z,26.70
2019-01-31T09:04:58.147Z,28.10
2019-01-31T09:09:04.276Z,29.83
2019-01-31T09:13:11.735Z,31.20
2019-01-31T09:17:16.721Z,28.37
2019-01-31T09:21:54.294Z,30.63
2019-01-31T09:26:41.448Z,31.53
2019-01-31T09:31:30.156Z,33.60
2019-01-31T09:36:07.712Z,34.67
2019-01-31T09:40:58.519Z,38.30
2019-01-31T09:46:30.965Z,39.80
2019-01-31T09:51:35.290Z,43.27
2019-01-31T09:56:47.099Z,40.10
2019-01-31T10:01:45.798Z,41.07
2019-01-31T10:06:16.185Z,45.60
2019-01-31T10:10:58.512Z,39.63
2019-01-31T10:16:05.753Z,37.17
2019-01-31T10:21:30.136Z,27.50
2019-01-31T10:26:33.529Z,23.53
2019-01-31T10:31:59.356Z,22.50
2019-01-31T10:37:11.929Z,21.23
2019-01-31T10:41:46.694Z,20.30
2019-01-31T10:46:26.978Z,18.10
2019-01-31T10:51:20.378Z,20.10
2019-01-31T10:55:54.296Z,20.23
2019-01-31T11:00:52.997Z,20.60
2019-01-31T11:06:12.575Z,17.90
2019-01-31T11:10:29.821Z,16.13
2019-01-31T11:15:23.003Z,15.60
2019-01-31T11:19:58.160Z,15.97
2019-01-31T11:25:27.164Z,15.10
2019-01-31T11:30:32.707Z,14.10
2019-01-31T11:34:58.067Z,14.27
2019-01-31T11:39:56.681Z,14.33
2019-01-31T11:44:40.816Z,13.97
2019-01-31T11:49:46.620Z,14.03
2019-01-31T11:54:25.414Z,14.10
2019-01-31T11:58:59.414Z,15.23
2019-01-31T12:03:04.400Z,13.83
2019-01-31T12:07:09.291Z,12.93
2019-01-31T12:11:14.175Z,11.57
2019-01-31T12:15:19.318Z,13.40
2019-01-31T12:19:24.305Z,12.03
2019-01-31T12:23:32.151Z,12.30
2019-01-31T12:27:35.809Z,12.87
2019-01-31T12:31:40.842Z,13.30
2019-01-31T12:35:45.727Z,13.30
2019-01-31T12:39:52.229Z,13.33
2019-01-31T12:43:57.193Z,13.00
2019-01-31T12:48:02.115Z,13.17
2019-01-31T12:52:07.023Z,11.27
2019-01-31T12:56:12.016Z,12.40
2019-01-31T13:00:21.657Z,14.00
2019-01-31T13:04:26.614Z,11.40
2019-01-31T13:08:31.564Z,12.37
2019-01-31T13:12:36.496Z,11.70
2019-01-31T13:16:41.799Z,12.73
2019-01-31T13:20:46.789Z,12.00
2019-01-31T13:24:51.682Z,13.50
2019-01-31T13:28:56.562Z,12.30
2019-01-31T13:33:01.550Z,13.37
2019-01-31T13:37:06.532Z,15.03
2019-01-31T13:41:11.413Z,15.63
2019-01-31T13:45:19.191Z,14.97
2019-01-31T13:49:24.101Z,14.57
2019-01-31T13:53:29.300Z,15.60
2019-01-31T13:57:34.243Z,15.47
2019-01-31T14:01:39.131Z,15.43
2019-01-31T14:05:44.026Z,14.87
2019-01-31T14:09:48.935Z,15.50
2019-01-31T14:13:53.839Z,14.93
2019-01-31T14:17:58.726Z,14.00
2019-01-31T14:22:03.944Z,15.30
2019-01-31T14:26:08.852Z,14.70
2019-01-31T14:30:29.949Z,13.80
2019-01-31T14:34:34.889Z,12.13
2019-01-31T14:38:39.770Z,12.80
2019-01-31T14:42:44.681Z,13.07
2019-01-31T14:46:49.595Z,13.67
2019-01-31T14:50:54.635Z,14.33
2019-01-31T14:54:59.934Z,12.80
2019-01-31T14:59:04.831Z,13.57
2019-01-31T15:03:09.775Z,14.47
2019-01-31T15:07:14.667Z,14.43
2019-01-31T15:11:19.574Z,15.50
2019-01-31T15:15:24.480Z,15.27
2019-01-31T15:19:29.370Z,14.83
2019-01-31T15:23:34.277Z,15.07
2019-01-31T15:27:39.177Z,15.37
2019-01-31T15:31:44.066Z,14.57
2019-01-31T15:35:48.971Z,15.13
2019-01-31T15:39:54.125Z,16.83
2019-01-31T15:43:59.133Z,16.07
2019-01-31T15:48:04.145Z,15.83
2019-01-31T15:52:09.041Z,14.83
2019-01-31T15:56:13.926Z,15.97
2019-01-31T16:00:28.670Z,17.00
2019-01-31T16:04:33.567Z,15.97
2019-01-31T16:08:38.579Z,15.83
2019-01-31T16:12:43.506Z,17.37
2019-01-31T16:16:48.649Z,15.47
2019-01-31T16:20:53.545Z,16.93
2019-01-31T16:24:58.448Z,17.83
2019-01-31T16:29:03.453Z,17.83
2019-01-31T16:33:09.632Z,16.90
2019-01-31T16:37:14.534Z,17.33
2019-01-31T16:41:19.862Z,17.30
2019-01-31T16:45:24.899Z,21.47
2019-01-31T16:49:29.832Z,19.13
2019-01-31T16:53:35.036Z,16.03
2019-01-31T16:57:40.026Z,18.73
2019-01-31T17:01:45.239Z,18.37
2019-01-31T17:05:50.221Z,18.07
2019-01-31T17:09:55.134Z,20.00
2019-01-31T17:14:00.118Z,17.60
2019-01-31T17:18:07.374Z,18.50
2019-01-31T17:22:12.334Z,18.23
2019-01-31T17:26:19.857Z,17.60
2019-01-31T17:30:25.295Z,17.07
2019-01-31T17:34:30.266Z,17.47
2019-01-31T17:38:35.147Z,19.30
2019-01-31T17:42:40.102Z,18.10
2019-01-31T17:46:45.053Z,18.03
2019-01-31T17:50:50.299Z,18.07
2019-01-31T17:54:56.107Z,16.83
2019-01-31T17:59:01.161Z,17.90
2019-01-31T18:03:06.646Z,16.87
2019-01-31T18:07:11.624Z,17.30
2019-01-31T18:11:16.564Z,17.40
2019-01-31T18:15:21.477Z,17.80
2019-01-31T18:19:26.371Z,17.90
2019-01-31T18:23:31.588Z,17.10
2019-01-31T18:27:36.548Z,17.17
2019-01-31T18:31:42.086Z,17.13
2019-01-31T18:35:46.969Z,17.07
2019-01-31T18:39:51.869Z,16.90
2019-01-31T18:43:56.773Z,16.77
2019-01-31T18:48:04.846Z,16.43
2019-01-31T18:52:08.977Z,16.43
2019-01-31T18:56:13.889Z,17.07
2019-01-31T19:00:24.077Z,17.67
2019-01-31T19:04:29.006Z,16.93
2019-01-31T19:08:34.093Z,17.07
2019-01-31T19:12:39.088Z,16.47
2019-01-31T19:16:44.069Z,17.27
2019-01-31T19:20:49.078Z,17.93
2019-01-31T19:24:53.978Z,17.40
2019-01-31T19:28:58.940Z,17.27
2019-01-31T19:33:03.881Z,16.33
2019-01-31T19:37:08.869Z,15.97
2019-01-31T19:41:13.842Z,16.70
2019-01-31T19:45:40.204Z,16.93
2019-01-31T19:49:45.435Z,16.90
2019-01-31T19:53:50.508Z,16.53
2019-01-31T19:57:55.820Z,16.77
2019-01-31T20:02:00.852Z,16.83
2019-01-31T20:06:05.818Z,17.07
2019-01-31T20:10:12.020Z,15.43
2019-01-31T20:14:17.178Z,14.93
2019-01-31T20:18:22.139Z,15.23
2019-01-31T20:22:29.835Z,14.80
2019-01-31T20:26:34.804Z,14.83
2019-01-31T20:30:39.735Z,14.30
2019-01-31T20:34:44.696Z,13.43
2019-01-31T20:38:49.715Z,12.87
2019-01-31T20:42:54.716Z,13.23
2019-01-31T20:46:59.714Z,14.20
2019-01-31T20:51:04.767Z,13.13
2019-01-31T20:55:12.202Z,14.10
2019-01-31T20:59:18.215Z,13.20
2019-01-31T21:03:24.838Z,15.90
2019-01-31T21:07:30.000Z,15.53
2019-01-31T21:11:35.160Z,16.60
2019-01-31T21:15:40.190Z,15.27
2019-01-31T21:19:45.155Z,14.00
2019-01-31T21:23:50.092Z,17.10
2019-01-31T21:27:55.046Z,15.73
2019-01-31T21:32:00.015Z,15.33
2019-01-31T21:36:04.920Z,14.10
2019-01-31T21:40:10.659Z,14.53
2019-01-31T21:44:15.642Z,14.93
2019-01-31T21:48:20.889Z,14.17
2019-01-31T21:52:28.382Z,14.53
2019-01-31T21:56:33.285Z,12.43
2019-01-31T22:00:38.265Z,14.80
2019-01-31T22:04:43.760Z,15.33
2019-01-31T22:08:48.635Z,14.77
2019-01-31T22:12:54.194Z,14.33
2019-01-31T22:16:59.143Z,15.77
2019-01-31T22:21:04.053Z,12.90
2019-01-31T22:25:11.106Z,14.03
2019-01-31T22:29:16.042Z,15.80
2019-01-31T22:33:20.937Z,16.07
2019-01-31T22:37:26.155Z,14.40
2019-01-31T22:41:31.047Z,15.60
2019-01-31T22:45:35.973Z,16.73
2019-01-31T22:49:40.857Z,15.57
2019-01-31T22:53:45.780Z,15.27
2019-01-31T22:57:50.980Z,17.80
2019-01-31T23:02:03.524Z,17.17
2019-01-31T23:06:12.539Z,18.90
2019-01-31T23:10:17.705Z,17.60
2019-01-31T23:14:22.606Z,13.80
2019-01-31T23:19:05.588Z,15.07
2019-01-31T23:23:10.505Z,15.70
2019-01-31T23:27:15.394Z,15.37
2019-01-31T23:31:20.594Z,13.97
2019-01-31T23:35:25.840Z,13.80
2019-01-31T23:39:30.765Z,12.30
2019-01-31T23:43:35.928Z,12.97
2019-01-31T23:47:48.421Z,13.07
2019-01-31T23:51:48.051Z,13.30
2019-01-31T23:55:52.962Z,12.87
2019-01-31T23:59:57.876Z,12.47
